Time;durP1;ratioP1;P1;durP2;ratioP2;P2;SDS_P1;SDS_P2;PMS_P1;PMS_P2;Temp;Humidity;BMP_temperature;BMP_pressure;BME280_temperature;BME280_humidity;BME280_pressure;Samples;Min_cycle;Max_cycle;Signal;HPM_P1;HPM_P2
2023/07/09 00:02:24;;;;;;;10.43;7.32;;;19.30;68.20;;;;;;5046141;28;20044;-67
2023/07/09 00:04:50;;;;;;;10.70;7.53;;;19.30;68.10;;;;;;5039378;28;20534;-67
2023/07/09 00:07:19;;;;;;;9.82;7.30;;;19.30;68.20;;;;;;5042517;28;20041;-66
2023/07/09 00:09:45;;;;;;;12.13;7.30;;;19.20;68.30;;;;;;5041340;28;20454;-66
2023/07/09 00:12:16;;;;;;;9.95;7.35;;;19.20;68.50;;;;;;5037981;28;20056;-66
2023/07/09 00:14:42;;;;;;;12.57;7.85;;;19.20;68.50;;;;;;5046340;28;20127;-66
2023/07/09 00:17:11;;;;;;;10.85;8.00;;;19.20;68.70;;;;;;5035319;28;20117;-66
2023/07/09 00:19:36;;;;;;;10.48;6.85;;;19.20;68.90;;;;;;5036913;28;20051;-67
2023/07/09 00:22:02;;;;;;;11.70;7.43;;;19.10;68.80;;;;;;5038862;28;20399;-66
2023/07/09 00:24:28;;;;;;;11.55;7.63;;;19.10;69.10;;;;;;5035232;28;20043;-66
2023/07/09 00:26:54;;;;;;;12.32;7.43;;;19.10;69.10;;;;;;5031638;28;20115;-67
2023/07/09 00:29:20;;;;;;;10.45;8.43;;;19.00;69.20;;;;;;5039636;28;20103;-66
2023/07/09 00:31:45;;;;;;;11.25;7.85;;;19.00;69.20;;;;;;5035943;28;20044;-66
2023/07/09 00:34:14;;;;;;;11.88;7.25;;;19.00;69.30;;;;;;5042641;28;20041;-66
2023/07/09 00:36:45;;;;;;;12.05;7.78;;;19.00;69.30;;;;;;5042394;28;20354;-66
2023/07/09 00:39:18;;;;;;;12.10;7.63;;;18.90;69.30;;;;;;5039105;28;20052;-66
2023/07/09 00:41:45;;;;;;;11.82;7.00;;;18.90;69.40;;;;;;5039209;28;20072;-66
2023/07/09 00:44:20;;;;;;;10.57;7.30;;;18.90;69.50;;;;;;5037486;28;20502;-66
2023/07/09 00:46:49;;;;;;;11.00;7.63;;;18.90;69.80;;;;;;5036944;28;20041;-66
2023/07/09 00:49:36;;;;;;;14.20;7.85;;;18.90;69.80;;;;;;5033692;28;20057;-66
2023/07/09 00:52:14;;;;;;;10.93;7.65;;;18.90;69.90;;;;;;5030748;28;20124;-66
2023/07/09 00:54:43;;;;;;;12.10;7.70;;;18.80;70.20;;;;;;5042769;28;20178;-66
2023/07/09 00:57:17;;;;;;;9.27;7.38;;;18.80;70.40;;;;;;5040387;28;20047;-66
2023/07/09 00:59:45;;;;;;;10.75;8.25;;;18.70;70.50;;;;;;5037712;28;20064;-66
2023/07/09 01:02:11;;;;;;;11.13;7.85;;;18.80;71.20;;;;;;5046716;28;20056;-66
2023/07/09 01:04:39;;;;;;;12.60;7.97;;;18.80;70.30;;;;;;5043875;28;20068;-66
2023/07/09 01:07:04;;;;;;;11.55;7.53;;;18.80;70.40;;;;;;5042775;28;20055;-66
2023/07/09 01:09:30;;;;;;;12.40;7.03;;;18.80;70.30;;;;;;5044216;28;20116;-66
2023/07/09 01:12:00;;;;;;;12.52;7.60;;;18.80;70.20;;;;;;5041815;28;20129;-65
2023/07/09 01:14:26;;;;;;;;;;;18.90;70.40;;;;;;5047279;28;20045;-66
2023/07/09 01:17:00;;;;;;;10.73;7.50;;;18.80;70.60;;;;;;5032503;28;20238;-66
2023/07/09 01:19:28;;;;;;;12.00;7.60;;;18.80;70.00;;;;;;5021624;28;20052;-66
2023/07/09 01:21:56;;;;;;;11.80;7.75;;;18.80;69.90;;;;;;5040790;28;20475;-66
2023/07/09 01:24:46;;;;;;;12.15;7.65;;;18.80;69.90;;;;;;5042281;28;20038;-66
2023/07/09 01:27:12;;;;;;;10.30;7.38;;;18.80;70.10;;;;;;5035088;28;20064;-66
2023/07/09 01:29:38;;;;;;;12.38;8.05;;;18.70;69.70;;;;;;5031246;28;20779;-66
2023/07/09 01:32:06;;;;;;;11.00;8.20;;;18.70;69.70;;;;;;5044612;28;20033;-66
2023/07/09 01:34:32;;;;;;;14.27;8.00;;;18.70;69.80;;;;;;5052604;28;20087;-66
2023/07/09 01:36:58;;;;;;;10.93;7.85;;;18.70;69.80;;;;;;5048045;28;20048;-66
2023/07/09 01:39:28;;;;;;;11.93;8.23;;;18.70;69.80;;;;;;5044873;28;20025;-65
2023/07/09 01:41:54;;;;;;;12.65;8.27;;;18.70;69.70;;;;;;5037673;28;20116;-66
2023/07/09 01:44:20;;;;;;;11.77;8.10;;;18.70;69.60;;;;;;5039660;28;20037;-66
2023/07/09 01:46:45;;;;;;;12.02;7.95;;;18.70;69.50;;;;;;5043841;28;20045;-66
2023/07/09 01:49:11;;;;;;;12.95;8.20;;;18.80;69.50;;;;;;5037580;28;20076;-65
2023/07/09 01:51:38;;;;;;;10.30;7.60;;;18.80;69.30;;;;;;5034666;28;20080;-66
2023/07/09 01:54:04;;;;;;;11.63;7.72;;;18.80;69.10;;;;;;5037254;28;20044;-66
2023/07/09 01:56:29;;;;;;;9.45;7.68;;;18.90;68.70;;;;;;5037153;28;20056;-66
2023/07/09 01:59:00;;;;;;;11.55;8.13;;;19.00;68.50;;;;;;5033119;28;20113;-66
2023/07/09 02:01:28;;;;;;;10.60;7.07;;;19.00;68.20;;;;;;5033750;28;20817;-66
2023/07/09 02:03:53;;;;;;;10.18;7.70;;;19.00;68.80;;;;;;5032955;28;20095;-65
2023/07/09 02:06:19;;;;;;;16.10;7.45;;;19.10;67.90;;;;;;5045902;28;20037;-66
2023/07/09 02:08:45;;;;;;;11.52;7.47;;;19.10;67.80;;;;;;5044944;28;20078;-66
2023/07/09 02:11:11;;;;;;;12.23;8.20;;;19.00;67.70;;;;;;5041299;28;20041;-66
2023/07/09 02:13:36;;;;;;;11.30;7.32;;;19.10;67.60;;;;;;5034048;28;20041;-67
2023/07/09 02:16:02;;;;;;;10.93;7.70;;;19.10;67.50;;;;;;5037172;28;20603;-66
2023/07/09 02:18:29;;;;;;;10.13;7.38;;;19.10;67.50;;;;;;5037264;28;20068;-66
2023/07/09 02:20:54;;;;;;;9.73;7.60;;;19.10;67.40;;;;;;5036329;28;20524;-66
2023/07/09 02:23:25;;;;;;;9.20;7.03;;;19.20;67.10;;;;;;5040860;28;20048;-67
2023/07/09 02:25:51;;;;;;;10.70;7.43;;;19.20;67.10;;;;;;5035179;28;20497;-66
2023/07/09 02:28:16;;;;;;;9.85;7.38;;;19.10;67.20;;;;;;5037862;28;20051;-65
2023/07/09 02:30:42;;;;;;;12.38;7.78;;;19.10;67.20;;;;;;5036808;28;20111;-66
2023/07/09 02:33:07;;;;;;;11.10;7.43;;;19.10;67.20;;;;;;5030259;28;20033;-66
2023/07/09 02:35:35;;;;;;;12.02;7.55;;;19.00;67.30;;;;;;5036721;28;20053;-66
2023/07/09 02:38:01;;;;;;;12.13;7.18;;;19.00;67.20;;;;;;5031901;28;20073;-65
2023/07/09 02:40:27;;;;;;;11.80;7.13;;;19.00;67.40;;;;;;5034863;28;20079;-65
2023/07/09 02:42:52;;;;;;;10.68;7.13;;;19.00;67.50;;;;;;5046794;28;20044;-65
2023/07/09 02:45:18;;;;;;;10.02;7.60;;;18.90;67.40;;;;;;5035990;28;20068;-65
2023/07/09 02:47:43;;;;;;;9.18;7.22;;;19.00;67.40;;;;;;5038620;28;20029;-66
2023/07/09 02:50:09;;;;;;;9.32;7.03;;;19.00;67.40;;;;;;5031058;28;20061;-66
2023/07/09 02:52:35;;;;;;;11.73;7.50;;;18.90;67.40;;;;;;5037689;28;20053;-66
2023/07/09 02:55:00;;;;;;;10.55;7.80;;;18.90;67.60;;;;;;5042621;28;20434;-66
2023/07/09 02:57:26;;;;;;;12.23;7.75;;;18.80;68.70;;;;;;5029704;28;20042;-67
2023/07/09 02:59:52;;;;;;;10.88;8.10;;;18.80;68.20;;;;;;5040483;28;20038;-66
2023/07/09 03:02:17;;;;;;;10.20;7.65;;;18.70;68.40;;;;;;5034265;28;20040;-66
2023/07/09 03:04:43;;;;;;;11.30;7.70;;;18.70;68.70;;;;;;5040699;28;20541;-66
2023/07/09 03:07:08;;;;;;;14.68;7.00;;;18.70;68.90;;;;;;5021318;28;20044;-66
2023/07/09 03:09:34;;;;;;;10.75;8.15;;;18.60;68.80;;;;;;5045275;28;20037;-66
2023/07/09 03:12:00;;;;;;;11.43;7.60;;;18.60;68.80;;;;;;5037642;28;20070;-66
2023/07/09 03:14:25;;;;;;;11.18;7.47;;;18.60;68.80;;;;;;5043631;28;20036;-66
2023/07/09 03:16:51;;;;;;;13.55;8.90;;;18.60;68.90;;;;;;5038511;28;20047;-65
2023/07/09 03:19:17;;;;;;;11.48;8.20;;;18.60;68.90;;;;;;5056705;28;20032;-66
2023/07/09 03:21:42;;;;;;;12.82;7.47;;;18.50;69.00;;;;;;5043800;28;20525;-66
2023/07/09 03:24:08;;;;;;;11.50;8.10;;;18.50;69.00;;;;;;5031498;28;20040;-66
2023/07/09 03:26:34;;;;;;;14.40;8.13;;;18.50;69.20;;;;;;5034871;28;20041;-66
2023/07/09 03:29:00;;;;;;;10.45;7.97;;;18.50;69.30;;;;;;5046023;28;20056;-66
2023/07/09 03:31:25;;;;;;;10.75;7.25;;;18.50;69.40;;;;;;5049549;28;20037;-66
2023/07/09 03:33:51;;;;;;;9.68;7.85;;;18.50;69.50;;;;;;5033101;28;22357;-66
2023/07/09 03:36:19;;;;;;;12.30;8.10;;;18.50;69.60;;;;;;5041541;28;20602;-66
2023/07/09 03:38:45;;;;;;;12.55;8.23;;;18.50;69.60;;;;;;5033939;28;20489;-66
2023/07/09 03:41:10;;;;;;;11.63;8.18;;;18.50;69.70;;;;;;5051233;28;20041;-66
2023/07/09 03:43:36;;;;;;;14.02;8.82;;;18.40;69.60;;;;;;5050760;28;20511;-66
2023/07/09 03:46:02;;;;;;;11.38;8.68;;;18.50;69.50;;;;;;5043048;28;20041;-66
2023/07/09 03:48:27;;;;;;;9.63;8.48;;;18.50;69.40;;;;;;5037493;28;20860;-66
2023/07/09 03:50:53;;;;;;;9.52;7.95;;;18.50;69.40;;;;;;5034216;28;20124;-67
2023/07/09 03:53:19;;;;;;;11.52;8.13;;;18.50;69.40;;;;;;5025357;28;20052;-65
2023/07/09 03:55:52;;;;;;;10.48;8.23;;;18.50;69.30;;;;;;5034800;28;20044;-66
2023/07/09 03:58:18;;;;;;;9.90;8.82;;;18.60;69.20;;;;;;5034790;28;20045;-66
2023/07/09 04:00:44;;;;;;;12.40;8.20;;;18.70;69.10;;;;;;5035762;28;20787;-66
2023/07/09 04:03:11;;;;;;;10.40;8.27;;;18.70;69.00;;;;;;5017135;28;20357;-66
2023/07/09 04:05:37;;;;;;;13.63;8.50;;;18.70;68.90;;;;;;5036041;28;20119;-66
2023/07/09 04:08:03;;;;;;;12.13;7.72;;;18.70;68.90;;;;;;5036441;28;20186;-66
2023/07/09 04:10:28;;;;;;;11.65;8.00;;;18.70;68.90;;;;;;5039545;28;20045;-66
2023/07/09 04:12:54;;;;;;;12.98;8.18;;;18.70;69.10;;;;;;5033824;28;20037;-65
2023/07/09 04:15:19;;;;;;;8.95;7.60;;;18.80;68.90;;;;;;5031641;28;20140;-66
2023/07/09 04:17:45;;;;;;;13.38;8.63;;;18.80;68.50;;;;;;5038158;28;20465;-66
2023/07/09 04:20:12;;;;;;;11.10;8.38;;;18.90;68.20;;;;;;5033569;28;20128;-67
2023/07/09 04:22:38;;;;;;;11.95;8.13;;;19.00;67.80;;;;;;5032955;28;20091;-65
2023/07/09 04:25:06;;;;;;;11.90;8.57;;;19.10;67.50;;;;;;5039097;28;20067;-66
2023/07/09 04:27:33;;;;;;;12.25;8.25;;;19.20;67.30;;;;;;5038903;28;20437;-66
2023/07/09 04:29:59;;;;;;;10.77;7.82;;;19.20;67.10;;;;;;5033264;28;20052;-66
2023/07/09 04:32:25;;;;;;;10.75;8.40;;;19.30;66.90;;;;;;5033562;28;20037;-66
2023/07/09 04:34:50;;;;;;;11.60;7.55;;;19.30;66.80;;;;;;5028328;28;20063;-65
2023/07/09 04:37:16;;;;;;;11.98;8.10;;;19.40;66.70;;;;;;5043825;28;20045;-66
2023/07/09 04:39:43;;;;;;;12.60;8.65;;;19.50;66.60;;;;;;5043305;28;20052;-67
2023/07/09 04:42:14;;;;;;;10.13;8.43;;;19.60;66.30;;;;;;5042644;28;20111;-67
2023/07/09 04:44:40;;;;;;;11.52;8.20;;;19.60;66.00;;;;;;5037102;28;20714;-66
2023/07/09 04:47:05;;;;;;;11.65;8.15;;;19.70;66.30;;;;;;5041077;28;20048;-66
2023/07/09 04:49:31;;;;;;;11.75;8.07;;;19.80;65.70;;;;;;5032662;28;20065;-66
2023/07/09 04:51:58;;;;;;;10.02;8.15;;;19.90;65.50;;;;;;5044592;28;20067;-66
2023/07/09 04:54:24;;;;;;;13.32;8.32;;;20.00;65.30;;;;;;5033243;28;20424;-67
2023/07/09 04:56:50;;;;;;;12.38;7.63;;;20.00;65.20;;;;;;5033555;28;20151;-66
2023/07/09 04:59:15;;;;;;;9.32;7.63;;;20.10;65.10;;;;;;5034686;28;20033;-66
2023/07/09 05:01:41;;;;;;;13.88;8.52;;;20.20;64.90;;;;;;5035742;28;20514;-66
2023/07/09 05:04:07;;;;;;;12.80;7.43;;;20.20;64.60;;;;;;5039213;28;20075;-66
2023/07/09 05:06:34;;;;;;;12.23;7.47;;;20.30;64.60;;;;;;5036454;28;20152;-66
2023/07/09 05:08:59;;;;;;;12.75;8.85;;;20.40;64.70;;;;;;5036144;28;20046;-66
2023/07/09 05:11:25;;;;;;;15.55;8.13;;;20.50;64.40;;;;;;5035354;28;23316;-66
2023/07/09 05:13:51;;;;;;;10.68;8.20;;;20.60;64.10;;;;;;5036398;28;20459;-67
2023/07/09 05:16:16;;;;;;;10.93;7.93;;;20.70;64.00;;;;;;5029030;28;20530;-66
2023/07/09 05:18:42;;;;;;;11.30;7.22;;;20.80;63.70;;;;;;5035822;28;20127;-66
2023/07/09 05:21:08;;;;;;;12.90;7.30;;;20.90;63.50;;;;;;5041652;28;20050;-66
2023/07/09 05:23:34;;;;;;;12.00;7.72;;;21.20;63.30;;;;;;5038649;28;20033;-67
2023/07/09 05:26:02;;;;;;;11.43;7.18;;;21.30;63.10;;;;;;5052946;28;20037;-67
2023/07/09 05:28:29;;;;;;;10.88;7.03;;;21.50;62.90;;;;;;5036234;28;20063;-67
2023/07/09 05:30:54;;;;;;;9.82;7.20;;;21.70;63.00;;;;;;5039907;28;20113;-67
2023/07/09 05:33:20;;;;;;;11.15;7.43;;;21.90;62.80;;;;;;5047472;28;20116;-67
2023/07/09 05:35:46;;;;;;;8.18;6.57;;;22.00;62.20;;;;;;5043039;28;20041;-67
2023/07/09 05:38:12;;;;;;;10.90;7.72;;;22.10;61.90;;;;;;5024656;28;20037;-67
2023/07/09 05:40:38;;;;;;;11.88;7.43;;;22.10;61.90;;;;;;5047596;28;20086;-67
2023/07/09 05:43:04;;;;;;;9.63;6.95;;;22.20;61.80;;;;;;5040965;28;21288;-67
2023/07/09 05:45:30;;;;;;;10.05;7.80;;;22.30;61.70;;;;;;5042394;28;20044;-67
2023/07/09 05:47:58;;;;;;;8.20;7.05;;;22.40;61.80;;;;;;5038556;28;20048;-66
2023/07/09 05:50:23;;;;;;;11.00;7.25;;;22.50;61.70;;;;;;5025874;28;21220;-66
2023/07/09 05:52:49;;;;;;;10.43;7.32;;;22.60;61.70;;;;;;5038105;28;20112;-67
2023/07/09 05:55:15;;;;;;;9.40;7.30;;;22.60;62.10;;;;;;5033107;28;20041;-67
2023/07/09 05:57:40;;;;;;;9.57;6.53;;;22.70;62.40;;;;;;5035206;28;20124;-67
2023/07/09 06:00:08;;;;;;;11.40;7.28;;;22.80;62.40;;;;;;5040032;28;20044;-67
2023/07/09 06:02:33;;;;;;;10.40;7.03;;;22.90;62.20;;;;;;5022918;28;20031;-68
2023/07/09 06:05:00;;;;;;;10.73;7.32;;;23.00;62.50;;;;;;5037144;28;20045;-69
2023/07/09 06:07:26;;;;;;;13.05;6.35;;;22.90;62.40;;;;;;5023281;28;20506;-64
2023/07/09 06:09:52;;;;;;;8.57;7.13;;;23.00;62.50;;;;;;5044652;28;20123;-65
2023/07/09 06:12:19;;;;;;;11.55;7.40;;;22.90;62.40;;;;;;5032462;28;20049;-64
2023/07/09 06:14:45;;;;;;;9.63;6.35;;;23.00;62.40;;;;;;5022177;28;20065;-65
2023/07/09 06:17:11;;;;;;;11.68;7.70;;;23.00;62.20;;;;;;5032937;28;20485;-64
2023/07/09 06:19:37;;;;;;;8.70;6.90;;;23.20;62.60;;;;;;5030073;28;20144;-64
2023/07/09 06:22:03;;;;;;;9.88;7.10;;;23.30;62.70;;;;;;5033428;28;20357;-65
2023/07/09 06:24:28;;;;;;;10.88;7.50;;;23.40;62.40;;;;;;5034153;28;20040;-65
2023/07/09 06:26:54;;;;;;;10.85;7.65;;;23.50;62.50;;;;;;5045141;28;20064;-65
2023/07/09 06:29:19;;;;;;;10.93;8.02;;;23.60;62.70;;;;;;5033305;28;20049;-65
2023/07/09 06:31:45;;;;;;;10.07;7.35;;;23.70;62.80;;;;;;5034699;28;20048;-65
2023/07/09 06:34:11;;;;;;;11.35;7.72;;;23.80;62.70;;;;;;5046612;28;20047;-65
2023/07/09 06:36:36;;;;;;;10.50;7.53;;;23.90;62.70;;;;;;5033520;28;20099;-65
2023/07/09 06:39:03;;;;;;;11.80;7.90;;;24.00;62.50;;;;;;5041782;28;20063;-65
2023/07/09 06:41:29;;;;;;;12.93;8.50;;;24.20;62.20;;;;;;5042009;28;20110;-64
2023/07/09 06:43:55;;;;;;;12.05;7.97;;;24.30;61.40;;;;;;5031091;28;20038;-65
2023/07/09 06:46:20;;;;;;;15.07;9.18;;;24.60;60.80;;;;;;5039966;28;20044;-66
2023/07/09 06:48:46;;;;;;;12.70;8.65;;;24.90;59.80;;;;;;5032177;28;20136;-65
2023/07/09 06:51:12;;;;;;;15.43;9.27;;;25.10;59.00;;;;;;5038333;28;20461;-66
2023/07/09 06:53:39;;;;;;;14.90;8.50;;;25.10;58.40;;;;;;5046982;28;20037;-65
2023/07/09 06:56:05;;;;;;;11.93;8.82;;;25.40;58.10;;;;;;5018983;28;20028;-65
2023/07/09 06:58:33;;;;;;;11.43;8.60;;;25.70;57.70;;;;;;5033848;28;20056;-65
2023/07/09 07:01:03;;;;;;;12.40;7.55;;;25.90;57.10;;;;;;5030788;28;20721;-64
2023/07/09 07:03:29;;;;;;;13.13;8.57;;;26.10;56.30;;;;;;5033686;28;20774;-65
2023/07/09 07:05:55;;;;;;;14.82;8.73;;;26.10;56.10;;;;;;5036441;28;20043;-64
2023/07/09 07:08:23;;;;;;;11.52;9.00;;;26.20;54.20;;;;;;5030326;28;20062;-65
2023/07/09 07:10:56;;;;;;;14.02;8.38;;;26.10;53.90;;;;;;5034915;28;20045;-65
2023/07/09 07:13:21;;;;;;;13.85;8.52;;;26.10;54.30;;;;;;5023967;28;20107;-66
2023/07/09 07:15:49;;;;;;;12.15;8.27;;;26.20;53.80;;;;;;5016310;28;20041;-65
2023/07/09 07:18:15;;;;;;;10.07;7.70;;;26.50;53.60;;;;;;5032548;28;20045;-65
2023/07/09 07:20:40;;;;;;;13.93;8.05;;;26.50;53.40;;;;;;5031583;28;20041;-63
2023/07/09 07:23:06;;;;;;;12.43;7.70;;;27.00;52.80;;;;;;5043554;28;20124;-64
2023/07/09 07:25:32;;;;;;;11.02;7.90;;;27.10;52.20;;;;;;5041890;28;20048;-66
2023/07/09 07:27:58;;;;;;;11.98;7.90;;;27.50;51.80;;;;;;5013800;28;20107;-65
2023/07/09 07:30:24;;;;;;;9.70;7.05;;;27.60;51.10;;;;;;5025087;28;20068;-65
2023/07/09 07:32:49;;;;;;;13.68;6.95;;;27.70;51.10;;;;;;5032955;28;20095;-64
2023/07/09 07:35:16;;;;;;;11.63;7.57;;;28.00;50.80;;;;;;5035107;28;20526;-65
2023/07/09 07:37:42;;;;;;;8.80;7.30;;;28.20;50.00;;;;;;5034945;28;20053;-66
2023/07/09 07:40:09;;;;;;;10.05;6.53;;;28.10;49.50;;;;;;5042891;28;20135;-65
2023/07/09 07:42:35;;;;;;;12.93;7.13;;;28.40;49.40;;;;;;5031266;28;20120;-65
2023/07/09 07:45:01;;;;;;;11.23;6.80;;;28.50;49.40;;;;;;5025773;28;20571;-66
2023/07/09 07:47:27;;;;;;;9.32;6.53;;;28.50;49.40;;;;;;5036061;28;20319;-67
2023/07/09 07:49:53;;;;;;;10.43;7.05;;;28.70;48.70;;;;;;5038959;28;20164;-66
2023/07/09 07:52:20;;;;;;;11.38;7.28;;;28.90;48.30;;;;;;5033759;28;20398;-67
2023/07/09 07:54:46;;;;;;;10.35;6.80;;;29.10;47.90;;;;;;5029319;28;20120;-67
2023/07/09 07:57:11;;;;;;;10.52;6.57;;;29.30;48.20;;;;;;5017845;28;20124;-66
2023/07/09 07:59:38;;;;;;;12.40;7.50;;;29.50;47.80;;;;;;5040993;28;20826;-66
2023/07/09 08:02:06;;;;;;;9.18;6.20;;;29.60;47.70;;;;;;5026824;28;20129;-66
2023/07/09 08:04:32;;;;;;;8.75;6.45;;;29.80;47.50;;;;;;5031872;28;20056;-66
2023/07/09 08:06:58;;;;;;;10.75;6.28;;;29.80;47.80;;;;;;5045151;28;20041;-65
2023/07/09 08:09:24;;;;;;;9.55;6.78;;;30.10;47.20;;;;;;5040232;28;20041;-66
2023/07/09 08:11:50;;;;;;;8.30;6.28;;;30.40;46.70;;;;;;5033899;28;20519;-67
2023/07/09 08:14:16;;;;;;;11.10;6.32;;;30.60;46.50;;;;;;5030052;28;20123;-65
2023/07/09 08:16:41;;;;;;;7.57;6.03;;;30.70;46.20;;;;;;5029332;28;20045;-66
2023/07/09 08:19:07;;;;;;;8.38;5.47;;;30.80;45.40;;;;;;5044600;28;20055;-65
2023/07/09 08:21:32;;;;;;;7.88;5.38;;;30.90;44.70;;;;;;5032200;28;20037;-66
2023/07/09 08:23:58;;;;;;;9.10;5.55;;;31.10;44.20;;;;;;5045135;28;20068;-66
2023/07/09 08:26:24;;;;;;;12.60;6.50;;;31.40;43.80;;;;;;5049525;28;20101;-66
2023/07/09 08:28:50;;;;;;;7.85;5.90;;;31.60;43.00;;;;;;5049015;28;20255;-66
2023/07/09 08:31:16;;;;;;;7.13;5.95;;;31.40;43.40;;;;;;5041440;28;20033;-66
2023/07/09 08:33:42;;;;;;;8.75;6.03;;;31.70;42.70;;;;;;5049272;28;20064;-65
2023/07/09 08:36:08;;;;;;;9.70;6.00;;;32.00;42.00;;;;;;5038972;28;20028;-66
2023/07/09 08:38:34;;;;;;;7.85;6.03;;;32.30;41.60;;;;;;5035121;28;20041;-66
2023/07/09 08:41:41;;;;;;;9.13;6.05;;;32.40;41.20;;;;;;5035899;28;20033;-65
2023/07/09 08:44:16;;;;;;;8.40;6.05;;;32.00;40.30;;;;;;5044876;28;20041;-66
2023/07/09 08:47:02;;;;;;;7.10;5.55;;;32.20;40.80;;;;;;5047059;28;20107;-66
2023/07/09 08:49:39;;;;;;;8.25;6.20;;;32.40;40.60;;;;;;5041659;28;20057;-65
2023/07/09 08:52:31;;;;;;;8.05;5.80;;;32.60;40.10;;;;;;5015195;28;20128;-67
2023/07/09 08:55:01;;;;;;;7.53;5.95;;;33.10;39.60;;;;;;5029349;28;20085;-66
2023/07/09 08:57:38;;;;;;;7.90;5.82;;;33.50;38.80;;;;;;5042841;28;20055;-66
2023/07/09 09:00:39;;;;;;;11.40;6.35;;;33.60;38.60;;;;;;5029629;28;20095;-67
2023/07/09 09:03:10;;;;;;;8.52;6.03;;;34.00;37.60;;;;;;5033332;28;20136;-66
2023/07/09 09:05:41;;;;;;;7.15;5.82;;;34.30;38.30;;;;;;5039642;28;20044;-68
2023/07/09 09:08:34;;;;;;;6.68;5.20;;;34.50;37.50;;;;;;5041040;28;20037;-67
2023/07/09 09:11:06;;;;;;;7.07;4.97;;;34.60;37.00;;;;;;5039417;28;20037;-65
2023/07/09 09:13:33;;;;;;;8.82;5.78;;;34.50;36.50;;;;;;5034595;28;20059;-66
2023/07/09 09:16:05;;;;;;;9.48;5.95;;;34.70;37.50;;;;;;5043821;28;20503;-68
2023/07/09 09:18:40;;;;;;;10.48;5.72;;;35.20;35.90;;;;;;5044769;28;20041;-66
2023/07/09 09:21:25;;;;;;;6.85;5.35;;;35.50;35.10;;;;;;5023855;28;20056;-67
2023/07/09 09:23:54;;;;;;;8.23;4.45;;;35.70;34.60;;;;;;5037501;28;20040;-67
2023/07/09 09:26:33;;;;;;;8.10;5.80;;;35.90;35.10;;;;;;5032143;28;20090;-67
2023/07/09 09:28:59;;;;;;;7.55;4.85;;;36.70;33.80;;;;;;5028709;28;20040;-66
2023/07/09 09:31:27;;;;;;;8.63;4.95;;;36.70;33.60;;;;;;5040977;28;20102;-66
2023/07/09 09:33:52;;;;;;;8.32;4.95;;;36.70;32.80;;;;;;5049631;28;20044;-66
2023/07/09 09:36:26;;;;;;;6.40;5.75;;;37.20;33.40;;;;;;5048719;28;20391;-69
2023/07/09 09:38:52;;;;;;;7.50;5.20;;;37.60;33.70;;;;;;5043284;28;20069;-67
2023/07/09 09:41:21;;;;;;;8.48;5.38;;;38.00;33.20;;;;;;5035246;28;20389;-68
2023/07/09 09:43:48;;;;;;;9.32;5.50;;;38.10;33.40;;;;;;5044757;28;20104;-67
2023/07/09 09:46:24;;;;;;;8.52;5.65;;;38.60;32.60;;;;;;5029962;28;20439;-66
2023/07/09 09:48:53;;;;;;;6.45;4.85;;;38.50;31.70;;;;;;5038671;28;20462;-66
2023/07/09 09:51:19;;;;;;;5.78;5.10;;;38.00;31.10;;;;;;5040862;28;20028;-66
2023/07/09 09:53:51;;;;;;;7.32;5.10;;;38.50;30.80;;;;;;5036569;28;20449;-68
2023/07/09 09:56:27;;;;;;;7.47;4.70;;;37.80;30.90;;;;;;5041012;28;20036;-69
2023/07/09 09:58:54;;;;;;;7.45;5.45;;;37.70;30.10;;;;;;5020501;28;20048;-67
2023/07/09 10:01:25;;;;;;;8.00;6.10;;;37.70;31.40;;;;;;5019648;28;20038;-67
2023/07/09 10:03:55;;;;;;;8.10;6.03;;;38.10;32.00;;;;;;5045408;28;20037;-68
2023/07/09 10:06:36;;;;;;;8.60;4.75;;;38.60;31.50;;;;;;5030764;28;20531;-66
2023/07/09 10:09:10;;;;;;;6.22;4.80;;;38.40;29.10;;;;;;5025678;28;20045;-67
2023/07/09 10:11:49;;;;;;;8.93;5.55;;;38.50;30.00;;;;;;5040011;28;20135;-65
2023/07/09 10:14:29;;;;;;;6.93;5.82;;;39.10;29.90;;;;;;5038373;28;20496;-69
2023/07/09 10:17:18;;;;;;;10.95;5.63;;;39.40;29.70;;;;;;5030209;28;20428;-68
2023/07/09 10:20:03;;;;;;;5.55;4.80;;;39.70;29.40;;;;;;5018996;28;20468;-68
2023/07/09 10:22:49;;;;;;;8.80;5.55;;;39.90;29.60;;;;;;5025095;28;20068;-67
2023/07/09 10:25:26;;;;;;;8.52;4.82;;;40.10;28.20;;;;;;5041963;28;20441;-67
2023/07/09 10:28:17;;;;;;;9.52;4.97;;;39.90;28.10;;;;;;5033604;28;20523;-67
2023/07/09 10:31:06;;;;;;;5.35;4.70;;;40.60;26.00;;;;;;5029930;28;20110;-68
2023/07/09 10:33:48;;;;;;;6.55;4.43;;;40.60;26.10;;;;;;5029047;28;20041;-67
2023/07/09 10:36:48;;;;;;;5.47;4.13;;;40.50;25.70;;;;;;5040433;28;20751;-66
2023/07/09 10:39:22;;;;;;;7.60;4.40;;;40.60;25.40;;;;;;5030457;28;20374;-67
2023/07/09 10:41:50;;;;;;;7.45;4.88;;;40.50;26.30;;;;;;5036336;28;20363;-68
2023/07/09 10:44:27;;;;;;;6.90;4.68;;;40.80;26.20;;;;;;5045149;28;20116;-67
2023/07/09 10:47:01;;;;;;;6.28;4.50;;;41.00;26.20;;;;;;5022587;28;20072;-67
2023/07/09 10:49:37;;;;;;;8.32;4.68;;;40.70;26.20;;;;;;5047537;28;20181;-65
2023/07/09 10:52:25;;;;;;;7.15;4.45;;;41.30;25.70;;;;;;5033958;28;20053;-67
2023/07/09 10:55:09;;;;;;;6.83;4.60;;;41.20;25.90;;;;;;5035176;28;20051;-66
2023/07/09 10:58:06;;;;;;;6.35;4.82;;;41.50;27.10;;;;;;5040665;28;20043;-67
2023/07/09 11:00:38;;;;;;;6.28;4.25;;;41.10;26.40;;;;;;5025131;28;20456;-68
2023/07/09 11:03:16;;;;;;;6.03;3.83;;;40.30;26.50;;;;;;5041862;28;20376;-66
2023/07/09 11:05:42;;;;;;;5.15;3.85;;;39.30;26.30;;;;;;5041138;28;20110;-65
2023/07/09 11:08:18;;;;;;;5.78;3.60;;;38.50;27.70;;;;;;5036485;28;20053;-67
2023/07/09 11:10:53;;;;;;;5.25;3.72;;;38.20;27.20;;;;;;5025817;28;20048;-68
2023/07/09 11:13:35;;;;;;;6.43;4.32;;;37.60;27.80;;;;;;5046880;28;20060;-65
2023/07/09 11:16:02;;;;;;;4.88;4.32;;;37.30;29.60;;;;;;5029076;28;20418;-64
2023/07/09 11:18:34;;;;;;;7.43;4.50;;;37.10;30.00;;;;;;5044158;28;20422;-66
2023/07/09 11:21:05;;;;;;;6.68;4.75;;;36.60;30.60;;;;;;5049170;28;20464;-67
2023/07/09 11:23:53;;;;;;;7.25;4.13;;;36.20;31.30;;;;;;5037881;28;20037;-67
2023/07/09 11:26:26;;;;;;;11.68;4.88;;;35.90;32.40;;;;;;5039587;28;20048;-70
2023/07/09 11:29:09;;;;;;;6.47;4.88;;;35.60;32.40;;;;;;5029845;28;21837;-67
2023/07/09 11:31:45;;;;;;;6.85;4.50;;;35.60;32.40;;;;;;5038564;28;20063;-66
2023/07/09 11:34:14;;;;;;;5.65;5.03;;;35.40;32.70;;;;;;5039945;28;20056;-67
2023/07/09 11:36:55;;;;;;;7.63;4.68;;;35.40;32.70;;;;;;5028130;28;20198;-66
2023/07/09 11:39:36;;;;;;;6.22;4.55;;;35.40;33.00;;;;;;5031298;28;20649;-64
2023/07/09 11:42:02;;;;;;;7.03;4.60;;;35.40;32.70;;;;;;5060519;28;20068;-67
2023/07/09 11:44:29;;;;;;;6.50;4.00;;;35.10;32.60;;;;;;5049907;28;20044;-66
2023/07/09 11:47:17;;;;;;;6.07;5.07;;;35.10;32.90;;;;;;5040324;28;20030;-67
2023/07/09 11:50:01;;;;;;;6.22;4.13;;;35.10;33.20;;;;;;5036184;28;20137;-68
2023/07/09 11:52:43;;;;;;;6.18;4.40;;;35.10;33.20;;;;;;5037467;28;20037;-67
2023/07/09 11:55:39;;;;;;;7.32;4.53;;;35.10;33.00;;;;;;5048702;28;20055;-68
2023/07/09 11:58:11;;;;;;;8.82;4.70;;;35.10;32.60;;;;;;5020307;28;20556;-66
2023/07/09 12:00:40;;;;;;;6.65;4.65;;;35.10;33.00;;;;;;5039440;28;20037;-66
2023/07/09 12:03:10;;;;;;;8.13;4.72;;;34.70;32.70;;;;;;5045224;28;20106;-66
2023/07/09 12:05:35;;;;;;;4.70;4.13;;;34.70;33.00;;;;;;5045671;28;20071;-66
2023/07/09 12:08:01;;;;;;;6.25;4.95;;;34.50;33.60;;;;;;5031681;28;20037;-67
2023/07/09 12:10:34;;;;;;;7.07;5.03;;;34.60;33.60;;;;;;5026627;28;20045;-68
2023/07/09 12:13:00;;;;;;;7.20;4.68;;;34.60;33.80;;;;;;5014374;28;20086;-67
2023/07/09 12:15:29;;;;;;;5.47;4.28;;;34.80;33.60;;;;;;5032917;28;20466;-64
2023/07/09 12:17:57;;;;;;;6.25;4.38;;;35.00;33.30;;;;;;5039828;28;20172;-65
2023/07/09 12:20:23;;;;;;;5.47;4.38;;;35.20;33.00;;;;;;5052440;28;20053;-68
2023/07/09 12:22:49;;;;;;;7.03;4.85;;;35.60;32.60;;;;;;5041849;28;20065;-68
2023/07/09 12:25:25;;;;;;;5.57;4.35;;;36.40;31.80;;;;;;5032116;28;20033;-64
2023/07/09 12:27:51;;;;;;;6.32;4.65;;;37.10;31.10;;;;;;5032054;28;20041;-63
2023/07/09 12:30:17;;;;;;;6.32;4.70;;;37.40;30.20;;;;;;5037491;28;20167;-65
2023/07/09 12:32:49;;;;;;;6.75;4.63;;;37.70;30.00;;;;;;5044398;28;20467;-67
2023/07/09 12:35:15;;;;;;;8.85;5.03;;;37.60;29.40;;;;;;5046796;28;20473;-67
2023/07/09 12:37:46;;;;;;;11.70;5.43;;;37.50;29.70;;;;;;5041459;28;20461;-67
2023/07/09 12:40:19;;;;;;;7.70;4.68;;;37.60;29.60;;;;;;5029411;28;20136;-65
2023/07/09 12:42:44;;;;;;;7.45;4.18;;;37.30;29.60;;;;;;5040826;28;20053;-67
2023/07/09 12:45:21;;;;;;;6.15;4.28;;;37.90;29.90;;;;;;5037710;28;20045;-67
2023/07/09 12:47:48;;;;;;;7.63;4.50;;;38.00;29.70;;;;;;5030844;28;20452;-65
2023/07/09 12:50:31;;;;;;;6.47;4.55;;;37.30;29.60;;;;;;5043351;28;20087;-65
2023/07/09 12:53:02;;;;;;;6.78;4.60;;;36.70;30.30;;;;;;5046111;28;20110;-65